createdAt,value
2024-01-09T00:00:14.444Z,80.10
2024-01-09T00:00:24.557Z,80.07
2024-01-09T00:00:34.548Z,80.07
2024-01-09T00:00:44.473Z,80.10
2024-01-09T00:00:54.568Z,80.10
2024-01-09T00:01:04.527Z,80.07
2024-01-09T00:01:24.518Z,80.07
2024-01-09T00:01:34.444Z,80.07
2024-01-09T00:01:45.097Z,80.18
2024-01-09T00:01:54.458Z,80.04
2024-01-09T00:02:04.618Z,80.07
2024-01-09T00:02:14.457Z,80.07
2024-01-09T00:02:34.474Z,80.07
2024-01-09T00:02:44.510Z,79.96
2024-01-09T00:02:54.497Z,80.00
2024-01-09T00:03:04.625Z,79.93
2024-01-09T00:03:15.322Z,79.96
2024-01-09T00:03:24.471Z,79.96
2024-01-09T00:03:44.451Z,79.86
2024-01-09T00:03:54.613Z,79.89
2024-01-09T00:04:04.546Z,79.86
2024-01-09T00:04:14.464Z,79.86
2024-01-09T00:04:24.513Z,79.86
2024-01-09T00:04:34.525Z,79.82
2024-01-09T00:04:54.479Z,79.86
2024-01-09T00:05:04.583Z,79.89
2024-01-09T00:05:14.466Z,79.89
2024-01-09T00:05:24.633Z,79.96
2024-01-09T00:05:34.596Z,79.86
2024-01-09T00:05:44.586Z,79.86
2024-01-09T00:05:54.636Z,79.82
2024-01-09T00:06:04.803Z,79.96
2024-01-09T00:06:24.606Z,80.00
2024-01-09T00:06:34.473Z,79.96
2024-01-09T00:06:44.476Z,79.93
2024-01-09T00:06:54.485Z,79.96
2024-01-09T00:07:04.423Z,80.00
2024-01-09T00:07:14.440Z,80.00
2024-01-09T00:07:25.206Z,80.10
2024-01-09T00:07:34.416Z,80.10
2024-01-09T00:07:54.613Z,79.96
2024-01-09T00:08:05.168Z,79.96
2024-01-09T00:08:14.560Z,80.00
2024-01-09T00:08:24.528Z,80.00
2024-01-09T00:08:34.503Z,80.07
2024-01-09T00:08:44.481Z,80.07
2024-01-09T00:09:04.456Z,80.04
2024-01-09T00:09:14.411Z,80.00
2024-01-09T00:09:27.116Z,80.10
2024-01-09T00:09:34.435Z,80.07
2024-01-09T00:09:44.404Z,79.96
2024-01-09T00:09:54.556Z,79.96
2024-01-09T00:10:14.494Z,80.10
2024-01-09T00:10:25.122Z,79.96
2024-01-09T00:10:34.396Z,80.18
2024-01-09T00:10:44.402Z,80.07
2024-01-09T00:10:54.446Z,80.18
2024-01-09T00:11:04.473Z,80.14
2024-01-09T00:11:24.571Z,80.07
2024-01-09T00:11:34.480Z,80.21
2024-01-09T00:11:44.487Z,80.18
2024-01-09T00:11:54.405Z,80.07
2024-01-09T00:12:04.390Z,79.96
2024-01-09T00:12:15.072Z,80.07
2024-01-09T00:12:34.389Z,80.07
2024-01-09T00:12:44.394Z,80.18
2024-01-09T00:12:54.468Z,80.07
2024-01-09T00:13:04.407Z,80.07
2024-01-09T00:13:14.418Z,80.10
2024-01-09T00:13:24.491Z,80.07
2024-01-09T00:13:34.421Z,80.07
2024-01-09T00:13:54.421Z,80.07
2024-01-09T00:14:04.446Z,80.04
2024-01-09T00:14:14.430Z,80.10
2024-01-09T00:14:24.567Z,80.18
2024-01-09T00:14:34.425Z,80.18
2024-01-09T00:14:44.429Z,80.07
2024-01-09T00:14:54.508Z,80.07
2024-01-09T00:15:04.413Z,80.18
2024-01-09T00:15:14.412Z,80.18
2024-01-09T00:15:34.403Z,80.18
2024-01-09T00:15:44.410Z,80.14
2024-01-09T00:15:55.061Z,80.28
2024-01-09T00:16:04.423Z,80.18
2024-01-09T00:16:14.543Z,80.21
2024-01-09T00:16:24.484Z,80.28
2024-01-09T00:16:44.375Z,80.32
2024-01-09T00:16:54.466Z,80.28
2024-01-09T00:17:04.452Z,80.28
2024-01-09T00:17:14.418Z,80.39
2024-01-09T00:17:24.465Z,80.18
2024-01-09T00:17:34.434Z,80.28
2024-01-09T00:17:44.462Z,80.43
2024-01-09T00:18:04.676Z,80.49
2024-01-09T00:18:14.797Z,80.49
2024-01-09T00:18:25.119Z,80.60
2024-01-09T00:18:34.537Z,80.46
2024-01-09T00:18:44.509Z,80.60
2024-01-09T00:18:54.822Z,80.74
2024-01-09T00:19:14.570Z,80.60
2024-01-09T00:19:24.545Z,80.60
2024-01-09T00:19:34.859Z,80.57
2024-01-09T00:19:44.504Z,80.60
2024-01-09T00:19:54.518Z,80.60
2024-01-09T00:20:04.507Z,80.60
2024-01-09T00:20:24.520Z,80.49
2024-01-09T00:20:35.092Z,80.53
2024-01-09T00:20:44.421Z,80.46
2024-01-09T00:20:54.400Z,80.49
2024-01-09T00:21:04.387Z,80.39
2024-01-09T00:21:14.374Z,80.39
2024-01-09T00:21:34.381Z,80.39
2024-01-09T00:21:44.366Z,80.49
2024-01-09T00:21:54.487Z,80.39
2024-01-09T00:22:04.390Z,80.39
2024-01-09T00:22:14.372Z,80.39
2024-01-09T00:22:24.360Z,80.43
2024-01-09T00:22:44.394Z,80.39
2024-01-09T00:22:54.471Z,80.39
2024-01-09T00:23:04.416Z,80.39
2024-01-09T00:23:14.483Z,80.39
2024-01-09T00:23:24.409Z,80.43
2024-01-09T00:23:34.391Z,80.28
2024-01-09T00:23:44.522Z,80.28
2024-01-09T00:23:54.413Z,80.39
2024-01-09T00:24:04.404Z,80.39
2024-01-09T00:24:14.385Z,80.32
2024-01-09T00:24:34.350Z,80.32
2024-01-09T00:24:44.386Z,80.28
2024-01-09T00:24:54.533Z,80.28
2024-01-09T00:25:04.399Z,80.28
2024-01-09T00:25:14.345Z,80.28
2024-01-09T00:25:25.150Z,80.28
2024-01-09T00:25:34.380Z,80.32
2024-01-09T00:25:44.405Z,80.14
2024-01-09T00:26:04.354Z,80.43
2024-01-09T00:26:14.366Z,80.32
2024-01-09T00:26:24.378Z,80.28
2024-01-09T00:26:34.361Z,80.21
2024-01-09T00:26:44.403Z,80.39
2024-01-09T00:26:54.541Z,80.35
2024-01-09T00:27:14.372Z,80.43
2024-01-09T00:27:24.354Z,80.39
2024-01-09T00:27:34.360Z,80.28
2024-01-09T00:27:44.414Z,80.39
2024-01-09T00:27:54.368Z,80.49
2024-01-09T00:28:04.374Z,80.53
2024-01-09T00:28:24.363Z,80.35
2024-01-09T00:28:34.351Z,80.39
2024-01-09T00:28:44.344Z,80.46
2024-01-09T00:28:54.543Z,80.60
2024-01-09T00:29:04.456Z,80.53
2024-01-09T00:29:14.441Z,80.60
2024-01-09T00:29:24.369Z,80.60
2024-01-09T00:29:44.375Z,80.60
2024-01-09T00:29:54.394Z,80.74
2024-01-09T00:30:04.423Z,80.71
2024-01-09T00:30:14.464Z,80.74
2024-01-09T00:30:24.415Z,80.64
2024-01-09T00:30:34.381Z,80.82
2024-01-09T00:30:54.451Z,80.82
2024-01-09T00:31:04.396Z,80.96
2024-01-09T00:31:14.326Z,80.82
2024-01-09T00:31:24.328Z,80.82
2024-01-09T00:31:34.398Z,80.82
2024-01-09T00:31:44.347Z,80.92
2024-01-09T00:32:06.057Z,80.74
2024-01-09T00:32:14.488Z,80.74
2024-01-09T00:32:24.388Z,80.82
2024-01-09T00:32:34.461Z,80.74
2024-01-09T00:32:44.407Z,80.82
2024-01-09T00:32:54.779Z,80.74
2024-01-09T00:33:14.536Z,80.74
2024-01-09T00:33:24.569Z,80.71
2024-01-09T00:33:34.426Z,80.71
2024-01-09T00:33:44.463Z,80.82
2024-01-09T00:33:54.416Z,80.71
2024-01-09T00:34:04.382Z,80.71
2024-01-09T00:34:25.251Z,80.85
2024-01-09T00:34:34.414Z,80.85
2024-01-09T00:34:44.403Z,80.85
2024-01-09T00:34:54.328Z,80.85
2024-01-09T00:35:04.334Z,80.92
2024-01-09T00:35:14.411Z,80.92
2024-01-09T00:35:34.353Z,80.99
2024-01-09T00:35:44.414Z,80.92
2024-01-09T00:35:54.372Z,80.92
2024-01-09T00:36:04.432Z,80.92
2024-01-09T00:36:14.343Z,80.96
2024-01-09T00:36:24.377Z,80.92
2024-01-09T00:36:44.372Z,80.92
2024-01-09T00:36:54.317Z,80.82
2024-01-09T00:37:04.322Z,80.88
2024-01-09T00:37:14.318Z,80.96
2024-01-09T00:37:24.333Z,80.82
2024-01-09T00:37:34.329Z,80.92
2024-01-09T00:37:54.331Z,80.96
2024-01-09T00:38:04.307Z,80.96
2024-01-09T00:38:14.432Z,81.03
2024-01-09T00:38:24.394Z,80.82
2024-01-09T00:38:34.358Z,80.88
2024-01-09T00:38:44.366Z,80.92
2024-01-09T00:38:54.488Z,80.96
2024-01-09T00:39:04.322Z,80.99
2024-01-09T00:39:24.319Z,81.07
2024-01-09T00:39:34.298Z,81.03
2024-01-09T00:39:44.308Z,81.07
2024-01-09T00:39:54.314Z,80.92
2024-01-09T00:40:04.324Z,80.92
2024-01-09T00:40:14.293Z,80.96
2024-01-09T00:40:34.305Z,81.07
2024-01-09T00:40:44.294Z,81.07
2024-01-09T00:40:54.291Z,81.07
2024-01-09T00:41:04.444Z,81.17
2024-01-09T00:41:14.359Z,81.10
2024-01-09T00:41:24.382Z,81.07
2024-01-09T00:41:34.474Z,81.17
2024-01-09T00:41:44.355Z,81.10
2024-01-09T00:41:54.323Z,81.07
2024-01-09T00:42:14.288Z,81.13
2024-01-09T00:42:24.298Z,81.17
2024-01-09T00:42:34.302Z,81.13
2024-01-09T00:42:44.351Z,81.28
2024-01-09T00:42:54.328Z,81.03
2024-01-09T00:43:04.322Z,81.13
2024-01-09T00:43:14.314Z,81.13
2024-01-09T00:43:24.322Z,81.13
2024-01-09T00:43:34.325Z,81.17
2024-01-09T00:43:54.303Z,81.03
2024-01-09T00:44:04.285Z,81.17
2024-01-09T00:44:14.327Z,81.07
2024-01-09T00:44:24.332Z,81.17
2024-01-09T00:44:34.310Z,81.07
2024-01-09T00:44:44.324Z,81.17
2024-01-09T00:44:54.320Z,81.13
2024-01-09T00:45:04.333Z,81.13
2024-01-09T00:45:24.301Z,81.28
2024-01-09T00:45:36.287Z,81.07
2024-01-09T00:45:44.335Z,81.17
2024-01-09T00:45:54.306Z,81.13
2024-01-09T00:46:04.277Z,81.17
2024-01-09T00:46:14.320Z,81.17
2024-01-09T00:46:24.367Z,81.13
2024-01-09T00:46:44.338Z,81.03
2024-01-09T00:46:54.363Z,81.17
2024-01-09T00:47:04.391Z,81.03
2024-01-09T00:47:14.328Z,81.13
2024-01-09T00:47:24.291Z,81.03
2024-01-09T00:47:34.310Z,81.17
2024-01-09T00:47:44.702Z,81.17
2024-01-09T00:48:04.553Z,81.13
2024-01-09T00:48:15.241Z,81.03
2024-01-09T00:48:24.590Z,81.07
2024-01-09T00:48:34.377Z,81.07
2024-01-09T00:48:44.627Z,81.17
2024-01-09T00:48:54.438Z,81.17
2024-01-09T00:49:04.358Z,81.13
2024-01-09T00:49:24.421Z,81.03
2024-01-09T00:49:34.318Z,81.07
2024-01-09T00:49:44.338Z,81.03
2024-01-09T00:49:54.288Z,81.03
2024-01-09T00:50:04.304Z,81.07
2024-01-09T00:50:14.326Z,81.07
2024-01-09T00:50:24.283Z,81.03
2024-01-09T00:50:35.240Z,81.07
2024-01-09T00:50:54.386Z,81.17
2024-01-09T00:51:04.316Z,81.13
2024-01-09T00:51:14.263Z,81.17
2024-01-09T00:51:24.257Z,81.17
2024-01-09T00:51:34.321Z,81.03
2024-01-09T00:51:44.262Z,81.03
2024-01-09T00:51:54.323Z,81.13
2024-01-09T00:52:14.344Z,81.03
2024-01-09T00:52:24.282Z,81.07
2024-01-09T00:52:34.258Z,81.03
2024-01-09T00:52:44.263Z,81.07
2024-01-09T00:52:54.253Z,81.17
2024-01-09T00:53:04.258Z,81.13
2024-01-09T00:53:24.303Z,81.07
2024-01-09T00:53:34.306Z,81.17
2024-01-09T00:53:44.295Z,81.07
2024-01-09T00:53:54.298Z,81.13
2024-01-09T00:54:04.272Z,81.17
2024-01-09T00:54:15.092Z,81.13
2024-01-09T00:54:34.258Z,81.17
2024-01-09T00:54:44.297Z,81.24
2024-01-09T00:54:54.253Z,81.28
2024-01-09T00:55:04.272Z,81.38
2024-01-09T00:55:14.257Z,81.38
2024-01-09T00:55:24.252Z,81.24
2024-01-09T00:55:44.256Z,81.42
2024-01-09T00:55:54.280Z,81.38
2024-01-09T00:56:04.266Z,81.38
2024-01-09T00:56:14.314Z,81.28
2024-01-09T00:56:24.299Z,81.24
2024-01-09T00:56:34.329Z,81.38
2024-01-09T00:56:44.325Z,81.28
2024-01-09T00:57:04.292Z,81.28
2024-01-09T00:57:14.253Z,81.17
2024-01-09T00:57:24.237Z,81.28
2024-01-09T00:57:34.270Z,81.24
2024-01-09T00:57:44.270Z,81.24
2024-01-09T00:57:54.289Z,81.28
2024-01-09T00:58:14.254Z,81.35
2024-01-09T00:58:24.248Z,81.38
2024-01-09T00:58:34.235Z,81.38
2024-01-09T00:58:44.232Z,81.28
2024-01-09T00:58:54.241Z,81.35
2024-01-09T00:59:04.268Z,81.28
2024-01-09T00:59:14.362Z,81.38
2024-01-09T00:59:24.247Z,81.38
2024-01-09T00:59:34.257Z,81.35
2024-01-09T00:59:55.198Z,81.38
2024-01-09T01:00:04.236Z,81.38
2024-01-09T01:00:14.287Z,81.38
2024-01-09T01:00:24.253Z,81.38
2024-01-09T01:00:34.283Z,81.35
2024-01-09T01:00:44.245Z,81.35
2024-01-09T01:01:04.313Z,81.38
2024-01-09T01:01:14.287Z,81.28
2024-01-09T01:01:24.273Z,81.38
2024-01-09T01:01:34.264Z,81.38
2024-01-09T01:01:44.226Z,81.38
2024-01-09T01:01:54.268Z,81.28
2024-01-09T01:02:04.243Z,81.28
2024-01-09T01:02:24.300Z,81.24
2024-01-09T01:02:34.291Z,81.28
2024-01-09T01:02:44.273Z,81.28
2024-01-09T01:02:54.407Z,81.28
2024-01-09T01:03:04.229Z,81.28
2024-01-09T01:03:14.274Z,81.38
2024-01-09T01:03:34.253Z,81.24
2024-01-09T01:03:44.245Z,81.28
2024-01-09T01:03:54.272Z,81.28
2024-01-09T01:04:04.325Z,81.42
2024-01-09T01:04:14.270Z,81.28
2024-01-09T01:04:24.265Z,81.28
2024-01-09T01:04:34.302Z,81.38
2024-01-09T01:04:44.278Z,81.28
2024-01-09T01:04:54.274Z,81.38
2024-01-09T01:05:15.172Z,81.42
2024-01-09T01:05:24.421Z,81.38
2024-01-09T01:05:34.417Z,81.38
2024-01-09T01:05:44.256Z,81.49
2024-01-09T01:05:54.422Z,81.56
2024-01-09T01:06:04.318Z,81.60
2024-01-09T01:06:24.264Z,81.71
2024-01-09T01:06:34.206Z,81.60
2024-01-09T01:06:44.235Z,81.67
2024-01-09T01:06:54.204Z,81.71
2024-01-09T01:07:04.252Z,81.71
2024-01-09T01:07:14.234Z,81.63
2024-01-09T01:07:24.239Z,81.56
2024-01-09T01:07:34.219Z,81.60
2024-01-09T01:07:44.230Z,81.71
2024-01-09T01:07:54.208Z,81.60
2024-01-09T01:08:14.257Z,81.60
2024-01-09T01:08:24.271Z,81.60
2024-01-09T01:08:35.153Z,81.56
2024-01-09T01:08:44.234Z,81.60
2024-01-09T01:08:54.232Z,81.60
2024-01-09T01:09:04.214Z,81.63
2024-01-09T01:09:15.083Z,81.71
2024-01-09T01:09:24.229Z,81.63
2024-01-09T01:09:44.309Z,81.71
2024-01-09T01:09:55.197Z,81.60
2024-01-09T01:10:04.216Z,81.74
2024-01-09T01:10:16.425Z,81.74
2024-01-09T01:10:24.218Z,81.71
2024-01-09T01:10:34.228Z,81.60
2024-01-09T01:10:44.229Z,81.71
2024-01-09T01:11:04.206Z,81.71
2024-01-09T01:11:14.285Z,81.71
2024-01-09T01:11:24.344Z,81.71
2024-01-09T01:11:34.282Z,81.71
2024-01-09T01:11:44.239Z,81.74
2024-01-09T01:11:54.245Z,81.85
2024-01-09T01:12:14.243Z,81.81
2024-01-09T01:12:24.375Z,81.81
2024-01-09T01:12:34.225Z,81.71
2024-01-09T01:12:45.058Z,81.81
2024-01-09T01:12:54.197Z,81.81
2024-01-09T01:13:04.228Z,81.85
2024-01-09T01:13:14.253Z,81.85
2024-01-09T01:13:34.197Z,81.81
2024-01-09T01:13:44.185Z,81.85
2024-01-09T01:13:54.190Z,81.85
2024-01-09T01:14:04.195Z,81.81
2024-01-09T01:14:14.244Z,81.81
2024-01-09T01:14:24.220Z,81.81
2024-01-09T01:14:34.239Z,81.85
2024-01-09T01:14:54.258Z,81.81
2024-01-09T01:15:04.351Z,81.85
2024-01-09T01:15:14.195Z,81.85
2024-01-09T01:15:24.216Z,81.85
2024-01-09T01:15:34.237Z,81.85
2024-01-09T01:15:44.177Z,81.74
2024-01-09T01:16:05.079Z,81.85
2024-01-09T01:16:14.174Z,81.81
2024-01-09T01:16:24.231Z,81.81
2024-01-09T01:16:34.173Z,81.74
2024-01-09T01:16:44.285Z,81.71
2024-01-09T01:16:54.185Z,81.96
2024-01-09T01:17:14.238Z,81.81
2024-01-09T01:17:24.326Z,81.81
2024-01-09T01:17:34.237Z,81.96
2024-01-09T01:17:44.274Z,81.85
2024-01-09T01:17:54.238Z,81.96
2024-01-09T01:18:04.327Z,81.92
2024-01-09T01:18:24.206Z,81.88
2024-01-09T01:18:34.241Z,81.92
2024-01-09T01:18:44.224Z,81.96
2024-01-09T01:18:54.254Z,81.99
2024-01-09T01:19:04.282Z,81.96
2024-01-09T01:19:14.184Z,82.06
2024-01-09T01:19:24.207Z,81.96
2024-01-09T01:19:34.234Z,82.03
2024-01-09T01:19:54.202Z,82.06
2024-01-09T01:20:04.176Z,81.96
2024-01-09T01:20:14.192Z,81.92
2024-01-09T01:20:24.199Z,82.03
2024-01-09T01:20:34.340Z,82.03
2024-01-09T01:20:44.276Z,82.13
2024-01-09T01:21:04.193Z,82.17
2024-01-09T01:21:14.172Z,82.13
2024-01-09T01:21:24.238Z,82.17
2024-01-09T01:21:34.172Z,82.17
2024-01-09T01:21:44.160Z,82.28
2024-01-09T01:21:54.186Z,82.17
2024-01-09T01:22:04.209Z,82.13
2024-01-09T01:22:24.217Z,82.28
2024-01-09T01:22:34.201Z,82.24
2024-01-09T01:22:44.165Z,82.17
2024-01-09T01:22:54.170Z,82.17
2024-01-09T01:23:04.159Z,82.17
2024-01-09T01:23:14.211Z,82.17
2024-01-09T01:23:34.245Z,82.31
2024-01-09T01:23:44.221Z,82.28
2024-01-09T01:23:54.229Z,82.38
2024-01-09T01:24:05.055Z,82.28
2024-01-09T01:24:14.151Z,82.28
2024-01-09T01:24:24.181Z,82.28
2024-01-09T01:24:34.194Z,82.38
2024-01-09T01:24:54.153Z,82.38
2024-01-09T01:25:04.147Z,82.49
2024-01-09T01:25:14.169Z,82.45
2024-01-09T01:25:24.224Z,82.28
2024-01-09T01:25:34.181Z,82.45
2024-01-09T01:25:44.168Z,82.38
2024-01-09T01:25:55.054Z,82.38
2024-01-09T01:26:14.247Z,82.49
2024-01-09T01:26:24.190Z,82.45
2024-01-09T01:26:34.170Z,82.38
2024-01-09T01:26:44.191Z,82.45
2024-01-09T01:26:54.195Z,82.45
2024-01-09T01:27:04.139Z,82.49
2024-01-09T01:27:24.202Z,82.38
2024-01-09T01:27:34.136Z,82.34
2024-01-09T01:27:44.174Z,82.49
2024-01-09T01:27:54.177Z,82.42
2024-01-09T01:28:04.125Z,82.34
2024-01-09T01:28:14.162Z,82.45
2024-01-09T01:28:34.143Z,82.49
2024-01-09T01:28:44.159Z,82.45
2024-01-09T01:28:54.127Z,82.49
2024-01-09T01:29:04.145Z,82.38
2024-01-09T01:29:14.147Z,82.45
2024-01-09T01:29:25.170Z,82.42
2024-01-09T01:29:44.192Z,82.45
2024-01-09T01:29:54.174Z,82.49
2024-01-09T01:30:04.230Z,82.45
2024-01-09T01:30:14.150Z,82.49
2024-01-09T01:30:24.190Z,82.38
2024-01-09T01:30:34.275Z,82.49
2024-01-09T01:30:44.281Z,82.59
2024-01-09T01:30:54.255Z,82.49
2024-01-09T01:31:04.304Z,82.49
2024-01-09T01:31:24.123Z,82.59
2024-01-09T01:31:35.078Z,82.56
2024-01-09T01:31:44.133Z,82.49
2024-01-09T01:31:54.135Z,82.56
2024-01-09T01:32:04.139Z,82.59
2024-01-09T01:32:14.138Z,82.49
2024-01-09T01:32:24.317Z,82.45
2024-01-09T01:32:44.278Z,82.56
2024-01-09T01:32:54.272Z,82.49
2024-01-09T01:33:04.192Z,82.56
2024-01-09T01:33:14.477Z,82.52
2024-01-09T01:33:24.300Z,82.56
2024-01-09T01:33:34.370Z,82.59
2024-01-09T01:33:54.254Z,82.56
2024-01-09T01:34:04.238Z,82.70
2024-01-09T01:34:14.281Z,82.77
2024-01-09T01:34:24.186Z,82.67
2024-01-09T01:34:34.160Z,82.70
2024-01-09T01:34:44.232Z,82.67
2024-01-09T01:34:55.062Z,82.70
2024-01-09T01:35:04.134Z,82.70
2024-01-09T01:35:24.192Z,82.81
2024-01-09T01:35:34.216Z,82.77
2024-01-09T01:35:44.177Z,82.81
2024-01-09T01:35:54.178Z,82.77
2024-01-09T01:36:04.102Z,82.77
2024-01-09T01:36:14.117Z,82.92
2024-01-09T01:36:34.116Z,82.88
2024-01-09T01:36:44.118Z,82.88
2024-01-09T01:36:54.105Z,82.88
2024-01-09T01:37:04.108Z,82.73
2024-01-09T01:37:14.115Z,82.92
2024-01-09T01:37:24.159Z,82.77
2024-01-09T01:37:44.141Z,82.81
2024-01-09T01:37:54.174Z,82.67
2024-01-09T01:38:04.128Z,82.77
2024-01-09T01:38:14.109Z,82.77
2024-01-09T01:38:24.275Z,82.67
2024-01-09T01:38:34.126Z,82.67
2024-01-09T01:38:54.155Z,82.77
2024-01-09T01:39:04.128Z,82.67
2024-01-09T01:39:14.171Z,82.63
2024-01-09T01:39:24.112Z,82.67
2024-01-09T01:39:34.116Z,82.67
2024-01-09T01:39:44.113Z,82.77
2024-01-09T01:39:55.204Z,82.67
2024-01-09T01:40:14.107Z,82.77
2024-01-09T01:40:24.107Z,82.67
2024-01-09T01:40:34.109Z,82.67
2024-01-09T01:40:44.090Z,82.77
2024-01-09T01:40:54.101Z,82.70
2024-01-09T01:41:04.112Z,82.77
2024-01-09T01:41:24.112Z,82.63
2024-01-09T01:41:34.187Z,82.77
2024-01-09T01:41:44.128Z,82.77
2024-01-09T01:41:54.153Z,82.70
2024-01-09T01:42:05.773Z,82.67
2024-01-09T01:42:14.086Z,82.67
2024-01-09T01:42:34.144Z,82.70
2024-01-09T01:42:44.099Z,82.67
2024-01-09T01:42:54.097Z,82.77
2024-01-09T01:43:04.139Z,82.67
2024-01-09T01:43:14.178Z,82.56
2024-01-09T01:43:24.082Z,82.52
2024-01-09T01:43:44.072Z,82.45
2024-01-09T01:43:54.084Z,82.49
2024-01-09T01:44:04.126Z,82.34
2024-01-09T01:44:14.112Z,82.45
2024-01-09T01:44:24.164Z,82.34
2024-01-09T01:44:34.143Z,82.45
2024-01-09T01:44:54.174Z,82.42
2024-01-09T01:45:04.077Z,82.45
2024-01-09T01:45:14.083Z,82.34
2024-01-09T01:45:24.089Z,82.34
2024-01-09T01:45:34.081Z,82.34
2024-01-09T01:45:44.078Z,82.24
2024-01-09T01:46:04.109Z,82.34
2024-01-09T01:46:14.182Z,82.34
2024-01-09T01:46:24.096Z,82.34
2024-01-09T01:46:35.080Z,82.34
2024-01-09T01:46:44.084Z,82.34
2024-01-09T01:46:54.076Z,82.34
2024-01-09T01:47:14.129Z,82.31
2024-01-09T01:47:24.069Z,82.34
2024-01-09T01:47:34.169Z,82.49
2024-01-09T01:47:44.197Z,82.45
2024-01-09T01:47:54.222Z,82.45
2024-01-09T01:48:04.394Z,82.34
2024-01-09T01:48:24.339Z,82.45
2024-01-09T01:48:34.391Z,82.45
2024-01-09T01:48:44.198Z,82.34
2024-01-09T01:48:55.132Z,82.34
2024-01-09T01:49:04.152Z,82.45
2024-01-09T01:49:14.325Z,82.34
2024-01-09T01:49:34.091Z,82.34
2024-01-09T01:49:44.074Z,82.34
2024-01-09T01:49:54.076Z,82.34
2024-01-09T01:50:04.073Z,82.34
2024-01-09T01:50:14.106Z,82.34
2024-01-09T01:50:24.158Z,82.24
2024-01-09T01:50:34.110Z,82.38
2024-01-09T01:50:54.106Z,82.34
2024-01-09T01:51:04.054Z,82.34
2024-01-09T01:51:14.571Z,82.45
2024-01-09T01:51:24.059Z,82.24
2024-01-09T01:51:34.109Z,82.34
2024-01-09T01:51:44.113Z,82.24
2024-01-09T01:51:54.059Z,82.34
2024-01-09T01:52:04.065Z,82.34
2024-01-09T01:52:24.110Z,82.45
2024-01-09T01:52:34.074Z,82.45
2024-01-09T01:52:44.058Z,82.38
2024-01-09T01:52:54.059Z,82.31
2024-01-09T01:53:04.094Z,82.38
2024-01-09T01:53:14.085Z,82.42
2024-01-09T01:53:24.770Z,82.38
2024-01-09T01:53:35.104Z,82.42
2024-01-09T01:53:54.121Z,82.56
2024-01-09T01:54:04.081Z,82.45
2024-01-09T01:54:14.047Z,82.56
2024-01-09T01:54:24.150Z,82.42
2024-01-09T01:54:34.106Z,82.42
2024-01-09T01:54:44.064Z,82.45
2024-01-09T01:54:54.072Z,82.34
2024-01-09T01:55:04.104Z,82.45
2024-01-09T01:55:24.078Z,82.34
2024-01-09T01:55:34.038Z,82.34
2024-01-09T01:55:44.169Z,82.20
2024-01-09T01:55:54.071Z,82.38
2024-01-09T01:56:04.048Z,82.24
2024-01-09T01:56:14.075Z,82.28
2024-01-09T01:56:36.622Z,82.24
2024-01-09T01:56:44.085Z,82.24
2024-01-09T01:56:54.078Z,82.24
2024-01-09T01:57:04.036Z,82.24
2024-01-09T01:57:14.107Z,82.31
2024-01-09T01:57:24.091Z,82.38
2024-01-09T01:57:44.157Z,82.24
2024-01-09T01:57:54.033Z,82.28
2024-01-09T01:58:04.035Z,82.24
2024-01-09T01:58:14.082Z,82.34
2024-01-09T01:58:24.059Z,82.24
2024-01-09T01:58:34.068Z,82.20
2024-01-09T01:58:44.183Z,82.24
2024-01-09T01:59:04.059Z,82.24
2024-01-09T01:59:14.055Z,82.28
2024-01-09T01:59:24.113Z,82.28
2024-01-09T01:59:34.062Z,82.24
2024-01-09T01:59:44.094Z,82.24
2024-01-09T01:59:54.055Z,82.38
2024-01-09T02:00:14.040Z,82.24
2024-01-09T02:00:24.030Z,82.24
2024-01-09T02:00:34.050Z,82.28
2024-01-09T02:00:44.130Z,82.34
2024-01-09T02:00:54.045Z,82.24
2024-01-09T02:01:04.090Z,82.28
2024-01-09T02:01:14.063Z,82.34
2024-01-09T02:01:24.086Z,82.38
2024-01-09T02:01:44.607Z,82.45
2024-01-09T02:01:54.013Z,82.45
2024-01-09T02:02:04.033Z,82.45
2024-01-09T02:02:14.063Z,82.56
2024-01-09T02:02:24.058Z,82.70
2024-01-09T02:02:34.152Z,82.56
2024-01-09T02:02:54.172Z,82.59
2024-01-09T02:03:04.088Z,82.74
2024-01-09T02:03:14.059Z,82.74
2024-01-09T02:03:24.116Z,82.70
2024-01-09T02:03:34.114Z,82.70
2024-01-09T02:03:44.023Z,82.81
2024-01-09T02:03:54.263Z,82.67
2024-01-09T02:04:04.099Z,82.67
2024-01-09T02:04:24.101Z,82.70
2024-01-09T02:04:34.045Z,82.77
2024-01-09T02:04:46.728Z,82.81
2024-01-09T02:04:54.561Z,82.81
2024-01-09T02:05:04.116Z,82.84
2024-01-09T02:05:14.084Z,82.81
2024-01-09T02:05:34.105Z,82.81
2024-01-09T02:05:44.133Z,82.77
2024-01-09T02:05:54.102Z,82.84
2024-01-09T02:06:04.084Z,82.70
2024-01-09T02:06:14.131Z,82.92
2024-01-09T02:06:24.074Z,82.77
2024-01-09T02:06:44.017Z,82.92
2024-01-09T02:06:54.614Z,82.81
2024-01-09T02:07:04.063Z,82.77
2024-01-09T02:07:14.023Z,82.95
2024-01-09T02:07:24.062Z,82.92
2024-01-09T02:07:33.997Z,82.92
2024-01-09T02:07:54.562Z,82.92
2024-01-09T02:08:03.994Z,82.81
2024-01-09T02:08:14.061Z,82.92
2024-01-09T02:08:24.010Z,82.92
2024-01-09T02:08:34.071Z,82.88
2024-01-09T02:08:44.037Z,82.88
2024-01-09T02:09:04.064Z,83.02
2024-01-09T02:09:14.106Z,82.92
2024-01-09T02:09:24.011Z,83.02
2024-01-09T02:09:34.011Z,83.02
2024-01-09T02:09:44.001Z,83.02
2024-01-09T02:09:54.000Z,82.92
2024-01-09T02:10:13.998Z,82.92
2024-01-09T02:10:24.013Z,82.92
2024-01-09T02:10:33.989Z,82.98
2024-01-09T02:10:44.560Z,82.88
2024-01-09T02:10:54.009Z,82.92
2024-01-09T02:11:04.101Z,82.92
2024-01-09T02:11:14.076Z,82.98
2024-01-09T02:11:34.041Z,83.17
2024-01-09T02:11:44.070Z,83.23
2024-01-09T02:11:54.063Z,83.20
2024-01-09T02:12:03.986Z,83.20
2024-01-09T02:12:13.992Z,83.27
2024-01-09T02:12:23.999Z,83.38
2024-01-09T02:12:33.997Z,83.34
2024-01-09T02:12:53.998Z,83.48
2024-01-09T02:13:03.999Z,83.59
2024-01-09T02:13:13.989Z,83.56
2024-01-09T02:13:24.059Z,83.66
2024-01-09T02:13:33.982Z,83.66
2024-01-09T02:13:44.146Z,83.66
2024-01-09T02:14:04.043Z,83.70
2024-01-09T02:14:14.068Z,83.77
2024-01-09T02:14:24.042Z,83.77
2024-01-09T02:14:34.056Z,83.81
2024-01-09T02:14:44.018Z,83.87
2024-01-09T02:14:54.133Z,83.84
2024-01-09T02:15:14.008Z,83.95
2024-01-09T02:15:24.716Z,83.87
2024-01-09T02:15:34.013Z,84.02
2024-01-09T02:15:43.999Z,83.87
2024-01-09T02:15:53.981Z,84.06
2024-01-09T02:16:04.099Z,84.06
2024-01-09T02:16:13.986Z,84.02
2024-01-09T02:16:33.986Z,83.98
2024-01-09T02:16:44.013Z,84.12
2024-01-09T02:16:53.969Z,84.06
2024-01-09T02:17:03.981Z,84.20
2024-01-09T02:17:14.053Z,84.02
2024-01-09T02:17:24.120Z,84.12
2024-01-09T02:17:34.124Z,83.98
2024-01-09T02:17:54.011Z,84.12
2024-01-09T02:18:04.090Z,84.12
2024-01-09T02:18:14.064Z,84.12
2024-01-09T02:18:24.164Z,84.20
2024-01-09T02:18:34.003Z,84.12
2024-01-09T02:18:44.640Z,84.12
2024-01-09T02:18:54.048Z,84.12
2024-01-09T02:19:04.037Z,84.23
2024-01-09T02:19:24.055Z,84.09
2024-01-09T02:19:34.034Z,84.20
2024-01-09T02:19:44.091Z,84.23
2024-01-09T02:19:54.027Z,84.23
2024-01-09T02:20:04.066Z,84.20
2024-01-09T02:20:14.060Z,84.12
2024-01-09T02:20:34.058Z,84.20
2024-01-09T02:20:44.051Z,84.20
2024-01-09T02:20:54.147Z,84.30
2024-01-09T02:21:04.034Z,84.23
2024-01-09T02:21:13.997Z,84.30
2024-01-09T02:21:24.032Z,84.23
2024-01-09T02:21:34.559Z,84.30
2024-01-09T02:21:53.995Z,84.30
2024-01-09T02:22:03.976Z,84.20
2024-01-09T02:22:13.966Z,84.27
2024-01-09T02:22:24.011Z,84.38
2024-01-09T02:22:34.012Z,84.34
2024-01-09T02:22:43.988Z,84.38
2024-01-09T02:23:03.969Z,84.34
2024-01-09T02:23:14.033Z,84.34
2024-01-09T02:23:24.040Z,84.38
2024-01-09T02:23:33.972Z,84.30
2024-01-09T02:23:44.003Z,84.23
2024-01-09T02:23:54.004Z,84.34
2024-01-09T02:24:03.998Z,84.34
2024-01-09T02:24:13.961Z,84.34
2024-01-09T02:24:23.982Z,84.23
2024-01-09T02:24:34.985Z,84.34
2024-01-09T02:24:53.982Z,84.23
2024-01-09T02:25:03.980Z,84.34
2024-01-09T02:25:13.966Z,84.20
2024-01-09T02:25:23.984Z,84.30
2024-01-09T02:25:33.978Z,84.38
2024-01-09T02:25:43.957Z,84.30
2024-01-09T02:25:56.050Z,84.34
2024-01-09T02:26:39.640Z,84.45
2024-01-09T02:26:54.539Z,84.34
2024-01-09T02:27:04.142Z,84.34
2024-01-09T02:27:05.537Z,84.30
2024-01-09T02:27:24.015Z,84.38
2024-01-09T02:27:34.006Z,84.34
2024-01-09T02:27:44.071Z,84.30
2024-01-09T02:27:54.672Z,84.41
2024-01-09T02:28:04.065Z,84.45
2024-01-09T02:28:13.988Z,84.45